sensor_id;sensor_type;location;lat;lon;timestamp;temperature;humidity
23597;DHT22;40226;50.874;4.394;2023-09-08T00:01:49;24.60;99.90
23597;DHT22;40226;50.874;4.394;2023-09-08T00:04:15;24.50;99.90
23597;DHT22;40226;50.874;4.394;2023-09-08T00:06:41;24.50;99.90
23597;DHT22;40226;50.874;4.394;2023-09-08T00:09:07;24.30;1.00
23597;DHT22;40226;50.874;4.394;2023-09-08T00:11:33;24.30;1.00
23597;DHT22;40226;50.874;4.394;2023-09-08T00:13:59;24.30;1.00
23597;DHT22;40226;50.874;4.394;2023-09-08T00:16:25;24.20;1.00
23597;DHT22;40226;50.874;4.394;2023-09-08T00:18:50;24.10;1.00
23597;DHT22;40226;50.874;4.394;2023-09-08T00:21:16;24.00;1.00
23597;DHT22;40226;50.874;4.394;2023-09-08T00:23:42;23.90;1.00
23597;DHT22;40226;50.874;4.394;2023-09-08T00:26:07;23.90;1.00
23597;DHT22;40226;50.874;4.394;2023-09-08T00:28:33;23.90;1.00
23597;DHT22;40226;50.874;4.394;2023-09-08T00:30:58;23.80;1.00
23597;DHT22;40226;50.874;4.394;2023-09-08T00:33:25;23.90;1.00
23597;DHT22;40226;50.874;4.394;2023-09-08T00:35:51;24.10;1.00
23597;DHT22;40226;50.874;4.394;2023-09-08T00:38:19;24.20;99.90
23597;DHT22;40226;50.874;4.394;2023-09-08T00:40:45;24.10;99.90
23597;DHT22;40226;50.874;4.394;2023-09-08T00:43:11;24.00;99.90
23597;DHT22;40226;50.874;4.394;2023-09-08T00:45:40;24.00;99.90
23597;DHT22;40226;50.874;4.394;2023-09-08T00:48:07;24.10;99.90
23597;DHT22;40226;50.874;4.394;2023-09-08T00:50:34;23.80;99.90
23597;DHT22;40226;50.874;4.394;2023-09-08T00:53:00;23.80;99.90
23597;DHT22;40226;50.874;4.394;2023-09-08T00:55:26;23.70;99.90
23597;DHT22;40226;50.874;4.394;2023-09-08T00:57:51;23.70;99.90
23597;DHT22;40226;50.874;4.394;2023-09-08T01:00:17;23.70;99.90
23597;DHT22;40226;50.874;4.394;2023-09-08T01:02:42;23.90;99.90
23597;DHT22;40226;50.874;4.394;2023-09-08T01:05:10;23.80;99.90
23597;DHT22;40226;50.874;4.394;2023-09-08T01:07:36;23.90;99.90
23597;DHT22;40226;50.874;4.394;2023-09-08T01:10:02;24.10;99.90
23597;DHT22;40226;50.874;4.394;2023-09-08T01:12:29;24.20;99.90
23597;DHT22;40226;50.874;4.394;2023-09-08T01:14:55;24.20;99.90
23597;DHT22;40226;50.874;4.394;2023-09-08T01:17:21;24.00;99.90
23597;DHT22;40226;50.874;4.394;2023-09-08T01:19:47;23.80;99.90
23597;DHT22;40226;50.874;4.394;2023-09-08T01:26:07;23.60;99.90
23597;DHT22;40226;50.874;4.394;2023-09-08T01:28:02;23.70;99.90
23597;DHT22;40226;50.874;4.394;2023-09-08T01:30:30;23.80;99.90
23597;DHT22;40226;50.874;4.394;2023-09-08T01:32:58;23.80;99.90
23597;DHT22;40226;50.874;4.394;2023-09-08T01:35:24;23.80;99.90
23597;DHT22;40226;50.874;4.394;2023-09-08T01:37:50;23.80;99.90
23597;DHT22;40226;50.874;4.394;2023-09-08T01:40:16;23.90;99.90
23597;DHT22;40226;50.874;4.394;2023-09-08T01:42:42;23.80;99.90
23597;DHT22;40226;50.874;4.394;2023-09-08T01:45:08;23.70;99.90
23597;DHT22;40226;50.874;4.394;2023-09-08T01:47:34;23.50;99.90
23597;DHT22;40226;50.874;4.394;2023-09-08T01:50:00;23.50;99.90
23597;DHT22;40226;50.874;4.394;2023-09-08T01:52:26;23.40;99.90
23597;DHT22;40226;50.874;4.394;2023-09-08T01:54:52;23.60;99.90
23597;DHT22;40226;50.874;4.394;2023-09-08T01:57:18;23.60;99.90
23597;DHT22;40226;50.874;4.394;2023-09-08T01:59:44;23.40;99.90
23597;DHT22;40226;50.874;4.394;2023-09-08T02:02:10;23.30;99.90
23597;DHT22;40226;50.874;4.394;2023-09-08T02:04:36;23.20;99.90
23597;DHT22;40226;50.874;4.394;2023-09-08T02:07:02;23.20;99.90
23597;DHT22;40226;50.874;4.394;2023-09-08T02:09:33;23.20;99.90
23597;DHT22;40226;50.874;4.394;2023-09-08T02:11:59;23.20;99.90
23597;DHT22;40226;50.874;4.394;2023-09-08T02:14:25;23.30;99.90
23597;DHT22;40226;50.874;4.394;2023-09-08T02:16:51;23.30;99.90
23597;DHT22;40226;50.874;4.394;2023-09-08T02:19:16;23.30;99.90
23597;DHT22;40226;50.874;4.394;2023-09-08T02:21:42;23.20;99.90
23597;DHT22;40226;50.874;4.394;2023-09-08T02:24:08;23.30;99.90
23597;DHT22;40226;50.874;4.394;2023-09-08T02:26:33;23.30;99.90
23597;DHT22;40226;50.874;4.394;2023-09-08T02:28:59;23.30;99.90
23597;DHT22;40226;50.874;4.394;2023-09-08T02:31:26;23.30;99.90
23597;DHT22;40226;50.874;4.394;2023-09-08T02:33:52;23.30;99.90
23597;DHT22;40226;50.874;4.394;2023-09-08T02:36:18;23.30;99.90
23597;DHT22;40226;50.874;4.394;2023-09-08T02:38:53;23.20;99.90
23597;DHT22;40226;50.874;4.394;2023-09-08T02:41:20;23.30;99.90
23597;DHT22;40226;50.874;4.394;2023-09-08T02:43:46;23.30;99.90
23597;DHT22;40226;50.874;4.394;2023-09-08T02:46:11;23.30;99.90
23597;DHT22;40226;50.874;4.394;2023-09-08T02:48:37;23.20;99.90
23597;DHT22;40226;50.874;4.394;2023-09-08T02:51:03;23.00;99.90
23597;DHT22;40226;50.874;4.394;2023-09-08T02:53:28;23.00;99.90
23597;DHT22;40226;50.874;4.394;2023-09-08T02:55:55;23.10;99.90
23597;DHT22;40226;50.874;4.394;2023-09-08T02:58:21;23.20;99.90
23597;DHT22;40226;50.874;4.394;2023-09-08T03:00:46;23.10;99.90
23597;DHT22;40226;50.874;4.394;2023-09-08T03:03:12;23.00;99.90
23597;DHT22;40226;50.874;4.394;2023-09-08T03:05:38;23.10;99.90
23597;DHT22;40226;50.874;4.394;2023-09-08T03:08:03;23.10;99.90
23597;DHT22;40226;50.874;4.394;2023-09-08T03:10:30;23.20;99.90
23597;DHT22;40226;50.874;4.394;2023-09-08T03:13:02;23.20;99.90
23597;DHT22;40226;50.874;4.394;2023-09-08T03:15:28;23.20;99.90
23597;DHT22;40226;50.874;4.394;2023-09-08T03:17:54;23.20;99.90
23597;DHT22;40226;50.874;4.394;2023-09-08T03:20:20;23.10;99.90
23597;DHT22;40226;50.874;4.394;2023-09-08T03:22:46;22.90;99.90
23597;DHT22;40226;50.874;4.394;2023-09-08T03:25:14;22.90;99.90
23597;DHT22;40226;50.874;4.394;2023-09-08T03:27:40;22.80;99.90
23597;DHT22;40226;50.874;4.394;2023-09-08T03:30:06;22.90;99.90
23597;DHT22;40226;50.874;4.394;2023-09-08T03:32:32;22.90;99.90
23597;DHT22;40226;50.874;4.394;2023-09-08T03:34:57;22.90;99.90
23597;DHT22;40226;50.874;4.394;2023-09-08T03:37:23;22.80;99.90
23597;DHT22;40226;50.874;4.394;2023-09-08T03:39:50;22.80;99.90
23597;DHT22;40226;50.874;4.394;2023-09-08T03:42:16;22.90;99.90
23597;DHT22;40226;50.874;4.394;2023-09-08T03:44:41;22.90;99.90
23597;DHT22;40226;50.874;4.394;2023-09-08T03:47:07;22.90;99.90
23597;DHT22;40226;50.874;4.394;2023-09-08T03:49:32;22.90;99.90
23597;DHT22;40226;50.874;4.394;2023-09-08T03:51:58;22.80;99.90
23597;DHT22;40226;50.874;4.394;2023-09-08T03:54:24;22.80;99.90
23597;DHT22;40226;50.874;4.394;2023-09-08T03:56:49;22.80;99.90
23597;DHT22;40226;50.874;4.394;2023-09-08T03:59:15;22.80;99.90
23597;DHT22;40226;50.874;4.394;2023-09-08T04:01:41;22.80;99.90
23597;DHT22;40226;50.874;4.394;2023-09-08T04:04:06;22.70;99.90
23597;DHT22;40226;50.874;4.394;2023-09-08T04:06:32;22.60;99.90
23597;DHT22;40226;50.874;4.394;2023-09-08T04:08:58;22.70;99.90
23597;DHT22;40226;50.874;4.394;2023-09-08T04:11:23;22.60;99.90
23597;DHT22;40226;50.874;4.394;2023-09-08T04:13:49;22.60;99.90
23597;DHT22;40226;50.874;4.394;2023-09-08T04:16:15;22.60;99.90
23597;DHT22;40226;50.874;4.394;2023-09-08T04:18:40;22.50;99.90
23597;DHT22;40226;50.874;4.394;2023-09-08T04:21:06;22.60;99.90
23597;DHT22;40226;50.874;4.394;2023-09-08T04:23:33;22.60;99.90
23597;DHT22;40226;50.874;4.394;2023-09-08T04:25:59;22.70;99.90
23597;DHT22;40226;50.874;4.394;2023-09-08T04:28:24;22.70;99.90
23597;DHT22;40226;50.874;4.394;2023-09-08T04:30:50;22.70;99.90
23597;DHT22;40226;50.874;4.394;2023-09-08T04:33:16;22.50;99.90
23597;DHT22;40226;50.874;4.394;2023-09-08T04:35:41;22.50;99.90
23597;DHT22;40226;50.874;4.394;2023-09-08T04:38:07;22.60;99.90
23597;DHT22;40226;50.874;4.394;2023-09-08T04:40:33;22.50;99.90
23597;DHT22;40226;50.874;4.394;2023-09-08T04:42:59;22.50;99.90
23597;DHT22;40226;50.874;4.394;2023-09-08T04:45:24;22.60;99.90
23597;DHT22;40226;50.874;4.394;2023-09-08T04:47:50;22.60;99.90
23597;DHT22;40226;50.874;4.394;2023-09-08T04:50:16;22.50;99.90
23597;DHT22;40226;50.874;4.394;2023-09-08T04:52:41;22.50;99.90
23597;DHT22;40226;50.874;4.394;2023-09-08T04:55:07;22.50;99.90
23597;DHT22;40226;50.874;4.394;2023-09-08T04:57:33;22.50;99.90
23597;DHT22;40226;50.874;4.394;2023-09-08T04:59:58;22.30;99.90
23597;DHT22;40226;50.874;4.394;2023-09-08T05:02:24;22.20;99.90
23597;DHT22;40226;50.874;4.394;2023-09-08T05:04:50;22.20;99.90
23597;DHT22;40226;50.874;4.394;2023-09-08T05:07:15;22.30;99.90
23597;DHT22;40226;50.874;4.394;2023-09-08T05:09:41;22.20;99.90
23597;DHT22;40226;50.874;4.394;2023-09-08T05:12:07;22.20;99.90
23597;DHT22;40226;50.874;4.394;2023-09-08T05:14:32;22.30;99.90
23597;DHT22;40226;50.874;4.394;2023-09-08T05:16:58;22.20;99.90
23597;DHT22;40226;50.874;4.394;2023-09-08T05:19:23;22.20;99.90
23597;DHT22;40226;50.874;4.394;2023-09-08T05:21:54;22.20;99.90
23597;DHT22;40226;50.874;4.394;2023-09-08T05:24:20;22.00;99.90
23597;DHT22;40226;50.874;4.394;2023-09-08T05:26:46;22.20;99.90
23597;DHT22;40226;50.874;4.394;2023-09-08T05:29:12;22.30;99.90
23597;DHT22;40226;50.874;4.394;2023-09-08T05:31:38;22.30;99.90
23597;DHT22;40226;50.874;4.394;2023-09-08T05:34:04;22.40;99.90
23597;DHT22;40226;50.874;4.394;2023-09-08T05:36:29;22.20;99.90
23597;DHT22;40226;50.874;4.394;2023-09-08T05:38:56;22.20;99.90
23597;DHT22;40226;50.874;4.394;2023-09-08T05:41:22;22.30;99.90
23597;DHT22;40226;50.874;4.394;2023-09-08T05:43:48;22.20;99.90
23597;DHT22;40226;50.874;4.394;2023-09-08T05:46:13;22.20;99.90
23597;DHT22;40226;50.874;4.394;2023-09-08T05:48:39;22.20;99.90
23597;DHT22;40226;50.874;4.394;2023-09-08T05:51:05;22.40;99.90
23597;DHT22;40226;50.874;4.394;2023-09-08T05:53:32;22.30;99.90
23597;DHT22;40226;50.874;4.394;2023-09-08T05:55:58;22.40;99.90
23597;DHT22;40226;50.874;4.394;2023-09-08T05:58:24;22.50;99.90
23597;DHT22;40226;50.874;4.394;2023-09-08T06:00:55;22.50;99.90
23597;DHT22;40226;50.874;4.394;2023-09-08T06:03:21;22.50;99.90
23597;DHT22;40226;50.874;4.394;2023-09-08T06:05:46;22.50;99.90
23597;DHT22;40226;50.874;4.394;2023-09-08T06:08:12;22.70;99.90
23597;DHT22;40226;50.874;4.394;2023-09-08T06:10:38;22.70;99.90
23597;DHT22;40226;50.874;4.394;2023-09-08T06:13:04;22.70;99.90
23597;DHT22;40226;50.874;4.394;2023-09-08T06:15:33;22.80;99.90
23597;DHT22;40226;50.874;4.394;2023-09-08T06:17:59;22.70;99.90
23597;DHT22;40226;50.874;4.394;2023-09-08T06:20:24;22.70;99.90
23597;DHT22;40226;50.874;4.394;2023-09-08T06:22:52;22.70;99.90
23597;DHT22;40226;50.874;4.394;2023-09-08T06:25:17;22.60;99.90
23597;DHT22;40226;50.874;4.394;2023-09-08T06:27:43;22.80;99.90
23597;DHT22;40226;50.874;4.394;2023-09-08T06:30:09;23.00;99.90
23597;DHT22;40226;50.874;4.394;2023-09-08T06:32:35;23.10;99.90
23597;DHT22;40226;50.874;4.394;2023-09-08T06:35:00;23.00;99.90
23597;DHT22;40226;50.874;4.394;2023-09-08T06:37:26;23.00;99.90
23597;DHT22;40226;50.874;4.394;2023-09-08T06:39:54;23.00;99.90
23597;DHT22;40226;50.874;4.394;2023-09-08T06:42:20;23.00;99.90
23597;DHT22;40226;50.874;4.394;2023-09-08T06:44:45;22.90;99.90
23597;DHT22;40226;50.874;4.394;2023-09-08T06:47:11;23.00;99.90
23597;DHT22;40226;50.874;4.394;2023-09-08T06:49:36;23.20;99.90
23597;DHT22;40226;50.874;4.394;2023-09-08T06:52:02;23.30;99.90
23597;DHT22;40226;50.874;4.394;2023-09-08T06:54:28;23.30;99.90
23597;DHT22;40226;50.874;4.394;2023-09-08T06:56:53;23.30;99.90
23597;DHT22;40226;50.874;4.394;2023-09-08T06:59:19;23.30;99.90
23597;DHT22;40226;50.874;4.394;2023-09-08T07:01:44;23.30;99.90
23597;DHT22;40226;50.874;4.394;2023-09-08T07:04:10;23.30;99.90
23597;DHT22;40226;50.874;4.394;2023-09-08T07:06:36;23.30;99.90
23597;DHT22;40226;50.874;4.394;2023-09-08T07:09:03;23.40;99.90
23597;DHT22;40226;50.874;4.394;2023-09-08T07:11:29;23.50;99.90
23597;DHT22;40226;50.874;4.394;2023-09-08T07:13:56;23.50;99.90
23597;DHT22;40226;50.874;4.394;2023-09-08T07:16:21;23.60;99.90
23597;DHT22;40226;50.874;4.394;2023-09-08T07:18:47;23.50;99.90
23597;DHT22;40226;50.874;4.394;2023-09-08T07:21:12;23.50;99.90
23597;DHT22;40226;50.874;4.394;2023-09-08T07:23:38;23.70;99.90
23597;DHT22;40226;50.874;4.394;2023-09-08T07:26:04;23.80;99.90
23597;DHT22;40226;50.874;4.394;2023-09-08T07:28:30;23.90;99.90
23597;DHT22;40226;50.874;4.394;2023-09-08T07:31:01;23.90;99.90
23597;DHT22;40226;50.874;4.394;2023-09-08T07:33:28;24.00;99.90
23597;DHT22;40226;50.874;4.394;2023-09-08T07:35:53;24.00;99.90
23597;DHT22;40226;50.874;4.394;2023-09-08T07:38:19;24.00;99.90
23597;DHT22;40226;50.874;4.394;2023-09-08T07:40:45;24.10;99.90
23597;DHT22;40226;50.874;4.394;2023-09-08T07:43:10;24.10;99.90
23597;DHT22;40226;50.874;4.394;2023-09-08T07:45:36;24.30;99.90
23597;DHT22;40226;50.874;4.394;2023-09-08T07:48:01;24.40;99.90
23597;DHT22;40226;50.874;4.394;2023-09-08T07:50:28;24.30;99.90
23597;DHT22;40226;50.874;4.394;2023-09-08T07:52:56;24.30;99.90
23597;DHT22;40226;50.874;4.394;2023-09-08T07:55:22;24.30;99.90
23597;DHT22;40226;50.874;4.394;2023-09-08T07:57:50;24.30;99.90
23597;DHT22;40226;50.874;4.394;2023-09-08T08:00:16;24.20;99.90
23597;DHT22;40226;50.874;4.394;2023-09-08T08:02:45;24.40;99.90
23597;DHT22;40226;50.874;4.394;2023-09-08T08:05:11;24.50;99.90
23597;DHT22;40226;50.874;4.394;2023-09-08T08:07:38;24.80;99.90
23597;DHT22;40226;50.874;4.394;2023-09-08T08:10:05;25.00;99.90
23597;DHT22;40226;50.874;4.394;2023-09-08T08:12:31;25.00;99.90
23597;DHT22;40226;50.874;4.394;2023-09-08T08:14:56;25.40;99.90
23597;DHT22;40226;50.874;4.394;2023-09-08T08:17:22;25.40;99.90
23597;DHT22;40226;50.874;4.394;2023-09-08T08:19:48;25.80;99.90
23597;DHT22;40226;50.874;4.394;2023-09-08T08:22:13;25.60;99.90
23597;DHT22;40226;50.874;4.394;2023-09-08T08:24:39;25.50;99.90
23597;DHT22;40226;50.874;4.394;2023-09-08T08:27:04;25.10;99.90
23597;DHT22;40226;50.874;4.394;2023-09-08T08:29:31;25.20;99.90
23597;DHT22;40226;50.874;4.394;2023-09-08T08:31:56;25.20;99.90
23597;DHT22;40226;50.874;4.394;2023-09-08T08:34:22;25.40;99.90
23597;DHT22;40226;50.874;4.394;2023-09-08T08:36:47;25.80;99.90
23597;DHT22;40226;50.874;4.394;2023-09-08T08:39:13;25.80;99.90
23597;DHT22;40226;50.874;4.394;2023-09-08T08:41:40;25.70;99.90
23597;DHT22;40226;50.874;4.394;2023-09-08T08:44:07;25.80;99.90
23597;DHT22;40226;50.874;4.394;2023-09-08T08:46:34;25.70;99.90
23597;DHT22;40226;50.874;4.394;2023-09-08T08:49:03;25.80;99.90
23597;DHT22;40226;50.874;4.394;2023-09-08T08:51:30;26.10;99.90
23597;DHT22;40226;50.874;4.394;2023-09-08T08:53:57;26.20;99.90
23597;DHT22;40226;50.874;4.394;2023-09-08T08:56:23;26.20;99.90
23597;DHT22;40226;50.874;4.394;2023-09-08T08:58:49;26.40;99.90
23597;DHT22;40226;50.874;4.394;2023-09-08T09:01:18;26.50;99.90
23597;DHT22;40226;50.874;4.394;2023-09-08T09:03:49;26.70;99.90
23597;DHT22;40226;50.874;4.394;2023-09-08T09:06:15;26.90;99.90
23597;DHT22;40226;50.874;4.394;2023-09-08T09:08:43;26.70;99.90
23597;DHT22;40226;50.874;4.394;2023-09-08T09:11:10;26.60;99.90
23597;DHT22;40226;50.874;4.394;2023-09-08T09:13:35;26.50;99.90
23597;DHT22;40226;50.874;4.394;2023-09-08T09:16:01;26.50;99.90
23597;DHT22;40226;50.874;4.394;2023-09-08T09:18:29;26.70;99.90
23597;DHT22;40226;50.874;4.394;2023-09-08T09:20:57;27.00;99.90
23597;DHT22;40226;50.874;4.394;2023-09-08T09:23:30;27.00;99.90
23597;DHT22;40226;50.874;4.394;2023-09-08T09:25:56;27.10;99.90
23597;DHT22;40226;50.874;4.394;2023-09-08T09:28:22;27.10;99.90
23597;DHT22;40226;50.874;4.394;2023-09-08T09:30:50;27.10;99.90
23597;DHT22;40226;50.874;4.394;2023-09-08T09:33:17;27.10;99.90
23597;DHT22;40226;50.874;4.394;2023-09-08T09:35:45;27.10;99.90
23597;DHT22;40226;50.874;4.394;2023-09-08T09:38:11;27.40;99.90
23597;DHT22;40226;50.874;4.394;2023-09-08T09:40:37;27.70;99.90
23597;DHT22;40226;50.874;4.394;2023-09-08T09:43:04;27.60;99.90
23597;DHT22;40226;50.874;4.394;2023-09-08T09:45:31;27.70;99.90
23597;DHT22;40226;50.874;4.394;2023-09-08T09:47:57;27.60;99.90
23597;DHT22;40226;50.874;4.394;2023-09-08T09:50:33;27.60;99.90
23597;DHT22;40226;50.874;4.394;2023-09-08T09:53:03;27.90;99.90
23597;DHT22;40226;50.874;4.394;2023-09-08T09:55:32;28.00;99.90
23597;DHT22;40226;50.874;4.394;2023-09-08T09:57:59;27.80;99.90
23597;DHT22;40226;50.874;4.394;2023-09-08T10:00:27;28.00;99.90
23597;DHT22;40226;50.874;4.394;2023-09-08T10:02:54;28.10;99.90
23597;DHT22;40226;50.874;4.394;2023-09-08T10:05:20;27.90;99.90
23597;DHT22;40226;50.874;4.394;2023-09-08T10:07:47;27.90;99.90
23597;DHT22;40226;50.874;4.394;2023-09-08T10:10:14;28.00;99.90
23597;DHT22;40226;50.874;4.394;2023-09-08T10:12:43;28.40;99.90
23597;DHT22;40226;50.874;4.394;2023-09-08T10:15:10;28.20;99.90
23597;DHT22;40226;50.874;4.394;2023-09-08T10:17:37;28.30;99.90
23597;DHT22;40226;50.874;4.394;2023-09-08T10:20:05;28.50;99.90
23597;DHT22;40226;50.874;4.394;2023-09-08T10:22:38;28.60;99.90
23597;DHT22;40226;50.874;4.394;2023-09-08T10:25:06;28.80;99.90
23597;DHT22;40226;50.874;4.394;2023-09-08T10:27:31;29.10;99.90
23597;DHT22;40226;50.874;4.394;2023-09-08T10:30:00;29.30;99.90
23597;DHT22;40226;50.874;4.394;2023-09-08T10:32:27;29.20;99.90
23597;DHT22;40226;50.874;4.394;2023-09-08T10:34:53;29.20;99.90
23597;DHT22;40226;50.874;4.394;2023-09-08T10:37:25;29.40;99.90
23597;DHT22;40226;50.874;4.394;2023-09-08T10:39:51;29.40;99.90
23597;DHT22;40226;50.874;4.394;2023-09-08T10:47:25;29.90;99.90
23597;DHT22;40226;50.874;4.394;2023-09-08T10:49:52;31.30;99.90
23597;DHT22;40226;50.874;4.394;2023-09-08T10:52:21;32.60;99.90
23597;DHT22;40226;50.874;4.394;2023-09-08T10:54:49;33.60;99.90
23597;DHT22;40226;50.874;4.394;2023-09-08T10:57:16;34.60;99.40
23597;DHT22;40226;50.874;4.394;2023-09-08T11:02:35;36.70;92.30
23597;DHT22;40226;50.874;4.394;2023-09-08T11:05:02;36.70;88.90
23597;DHT22;40226;50.874;4.394;2023-09-08T11:07:30;36.40;87.60
23597;DHT22;40226;50.874;4.394;2023-09-08T11:09:56;36.70;86.20
23597;DHT22;40226;50.874;4.394;2023-09-08T11:12:22;37.80;84.40
23597;DHT22;40226;50.874;4.394;2023-09-08T11:14:49;38.50;76.70
23597;DHT22;40226;50.874;4.394;2023-09-08T11:17:15;38.30;73.70
23597;DHT22;40226;50.874;4.394;2023-09-08T11:19:50;38.80;73.40
23597;DHT22;40226;50.874;4.394;2023-09-08T11:22:16;38.80;72.60
23597;DHT22;40226;50.874;4.394;2023-09-08T11:24:43;38.50;71.10
23597;DHT22;40226;50.874;4.394;2023-09-08T11:27:09;37.90;70.90
23597;DHT22;40226;50.874;4.394;2023-09-08T11:29:35;37.70;71.00
23597;DHT22;40226;50.874;4.394;2023-09-08T11:32:02;38.60;68.30
23597;DHT22;40226;50.874;4.394;2023-09-08T11:34:29;38.80;68.20
23597;DHT22;40226;50.874;4.394;2023-09-08T11:36:56;39.30;64.60
23597;DHT22;40226;50.874;4.394;2023-09-08T11:39:25;37.80;65.00
23597;DHT22;40226;50.874;4.394;2023-09-08T11:41:51;38.60;64.20
23597;DHT22;40226;50.874;4.394;2023-09-08T11:44:20;36.90;64.30
23597;DHT22;40226;50.874;4.394;2023-09-08T11:46:46;37.50;65.50
23597;DHT22;40226;50.874;4.394;2023-09-08T11:49:13;37.70;64.90
23597;DHT22;40226;50.874;4.394;2023-09-08T11:51:39;37.40;65.00
23597;DHT22;40226;50.874;4.394;2023-09-08T11:54:05;38.30;64.10
23597;DHT22;40226;50.874;4.394;2023-09-08T11:56:30;38.60;63.70
23597;DHT22;40226;50.874;4.394;2023-09-08T11:58:57;38.90;62.10
23597;DHT22;40226;50.874;4.394;2023-09-08T12:01:23;38.60;62.80
23597;DHT22;40226;50.874;4.394;2023-09-08T12:03:56;38.90;60.70
23597;DHT22;40226;50.874;4.394;2023-09-08T12:06:25;39.00;60.10
23597;DHT22;40226;50.874;4.394;2023-09-08T12:08:51;39.70;59.30
23597;DHT22;40226;50.874;4.394;2023-09-08T12:11:16;39.20;58.50
23597;DHT22;40226;50.874;4.394;2023-09-08T12:13:42;39.10;58.20
23597;DHT22;40226;50.874;4.394;2023-09-08T12:16:20;37.60;60.70
23597;DHT22;40226;50.874;4.394;2023-09-08T12:18:48;37.00;61.60
23597;DHT22;40226;50.874;4.394;2023-09-08T12:21:15;37.60;61.90
23597;DHT22;40226;50.874;4.394;2023-09-08T12:23:51;38.70;58.90
23597;DHT22;40226;50.874;4.394;2023-09-08T12:26:17;38.30;59.60
23597;DHT22;40226;50.874;4.394;2023-09-08T12:28:43;37.40;60.80
23597;DHT22;40226;50.874;4.394;2023-09-08T12:31:09;37.80;61.30
23597;DHT22;40226;50.874;4.394;2023-09-08T12:33:35;38.10;61.20
23597;DHT22;40226;50.874;4.394;2023-09-08T12:36:18;38.70;60.80
23597;DHT22;40226;50.874;4.394;2023-09-08T12:38:48;39.40;59.60
23597;DHT22;40226;50.874;4.394;2023-09-08T12:41:14;39.30;59.40
23597;DHT22;40226;50.874;4.394;2023-09-08T12:43:40;40.10;58.50
23597;DHT22;40226;50.874;4.394;2023-09-08T12:46:06;40.60;57.90
23597;DHT22;40226;50.874;4.394;2023-09-08T12:48:31;40.50;58.00
23597;DHT22;40226;50.874;4.394;2023-09-08T12:50:57;39.10;59.60
23597;DHT22;40226;50.874;4.394;2023-09-08T12:53:22;39.90;59.00
23597;DHT22;40226;50.874;4.394;2023-09-08T12:55:48;40.00;58.00
23597;DHT22;40226;50.874;4.394;2023-09-08T12:58:15;40.50;57.40
23597;DHT22;40226;50.874;4.394;2023-09-08T13:00:40;41.10;56.70
23597;DHT22;40226;50.874;4.394;2023-09-08T13:03:06;42.10;55.50
23597;DHT22;40226;50.874;4.394;2023-09-08T13:05:32;41.30;55.90
23597;DHT22;40226;50.874;4.394;2023-09-08T13:07:57;41.40;56.20
23597;DHT22;40226;50.874;4.394;2023-09-08T13:10:23;41.80;55.70
23597;DHT22;40226;50.874;4.394;2023-09-08T13:12:49;41.90;54.70
23597;DHT22;40226;50.874;4.394;2023-09-08T13:15:15;40.40;56.20
23597;DHT22;40226;50.874;4.394;2023-09-08T13:17:40;40.30;56.70
23597;DHT22;40226;50.874;4.394;2023-09-08T13:20:07;39.70;57.20
23597;DHT22;40226;50.874;4.394;2023-09-08T13:22:33;40.50;56.00
23597;DHT22;40226;50.874;4.394;2023-09-08T13:24:59;40.40;56.10
23597;DHT22;40226;50.874;4.394;2023-09-08T13:27:25;40.20;56.20
23597;DHT22;40226;50.874;4.394;2023-09-08T13:29:52;40.40;55.60
23597;DHT22;40226;50.874;4.394;2023-09-08T13:32:18;40.50;55.90
23597;DHT22;40226;50.874;4.394;2023-09-08T13:34:44;41.20;55.50
23597;DHT22;40226;50.874;4.394;2023-09-08T13:37:10;42.40;53.70
23597;DHT22;40226;50.874;4.394;2023-09-08T13:39:36;43.40;52.40
23597;DHT22;40226;50.874;4.394;2023-09-08T13:42:02;44.00;50.80
23597;DHT22;40226;50.874;4.394;2023-09-08T13:44:28;43.50;50.10
23597;DHT22;40226;50.874;4.394;2023-09-08T13:46:54;41.30;52.80
23597;DHT22;40226;50.874;4.394;2023-09-08T13:49:20;40.20;55.60
23597;DHT22;40226;50.874;4.394;2023-09-08T13:51:46;41.60;54.10
23597;DHT22;40226;50.874;4.394;2023-09-08T13:54:12;42.30;53.10
23597;DHT22;40226;50.874;4.394;2023-09-08T13:56:39;43.20;51.70
23597;DHT22;40226;50.874;4.394;2023-09-08T13:59:06;42.90;51.60
23597;DHT22;40226;50.874;4.394;2023-09-08T14:01:33;42.20;52.10
23597;DHT22;40226;50.874;4.394;2023-09-08T14:03:59;42.50;52.20
23597;DHT22;40226;50.874;4.394;2023-09-08T14:06:26;42.90;51.60
23597;DHT22;40226;50.874;4.394;2023-09-08T14:08:52;42.80;50.70
23597;DHT22;40226;50.874;4.394;2023-09-08T14:11:18;39.70;54.40
23597;DHT22;40226;50.874;4.394;2023-09-08T14:13:44;37.60;58.20
23597;DHT22;40226;50.874;4.394;2023-09-08T14:16:11;37.50;59.70
23597;DHT22;40226;50.874;4.394;2023-09-08T14:18:36;38.20;57.50
23597;DHT22;40226;50.874;4.394;2023-09-08T14:21:02;38.40;57.30
23597;DHT22;40226;50.874;4.394;2023-09-08T14:23:29;38.40;57.90
23597;DHT22;40226;50.874;4.394;2023-09-08T14:25:55;38.70;58.00
23597;DHT22;40226;50.874;4.394;2023-09-08T14:28:21;39.20;57.20
23597;DHT22;40226;50.874;4.394;2023-09-08T14:30:46;40.30;56.10
23597;DHT22;40226;50.874;4.394;2023-09-08T14:33:12;41.30;54.50
23597;DHT22;40226;50.874;4.394;2023-09-08T14:35:42;42.30;53.30
23597;DHT22;40226;50.874;4.394;2023-09-08T14:38:09;42.30;52.80
23597;DHT22;40226;50.874;4.394;2023-09-08T14:40:34;41.90;53.00
23597;DHT22;40226;50.874;4.394;2023-09-08T14:43:00;42.20;52.50
23597;DHT22;40226;50.874;4.394;2023-09-08T14:45:25;42.40;52.50
23597;DHT22;40226;50.874;4.394;2023-09-08T14:47:53;42.90;51.00
23597;DHT22;40226;50.874;4.394;2023-09-08T14:50:19;42.90;51.10
23597;DHT22;40226;50.874;4.394;2023-09-08T14:52:44;43.30;50.90
23597;DHT22;40226;50.874;4.394;2023-09-08T14:55:10;43.90;50.00
23597;DHT22;40226;50.874;4.394;2023-09-08T14:57:36;43.70;49.60
23597;DHT22;40226;50.874;4.394;2023-09-08T15:00:05;42.70;51.10
23597;DHT22;40226;50.874;4.394;2023-09-08T15:02:32;42.00;52.30
23597;DHT22;40226;50.874;4.394;2023-09-08T15:04:57;41.80;51.90
23597;DHT22;40226;50.874;4.394;2023-09-08T15:07:23;40.30;54.00
23597;DHT22;40226;50.874;4.394;2023-09-08T15:09:48;40.70;53.60
23597;DHT22;40226;50.874;4.394;2023-09-08T15:12:16;41.10;53.30
23597;DHT22;40226;50.874;4.394;2023-09-08T15:14:42;40.50;54.00
23597;DHT22;40226;50.874;4.394;2023-09-08T15:17:08;39.20;56.20
23597;DHT22;40226;50.874;4.394;2023-09-08T15:19:33;39.00;56.00
23597;DHT22;40226;50.874;4.394;2023-09-08T15:21:59;39.00;57.20
23597;DHT22;40226;50.874;4.394;2023-09-08T15:24:24;40.60;55.40
23597;DHT22;40226;50.874;4.394;2023-09-08T15:26:50;40.60;54.60
23597;DHT22;40226;50.874;4.394;2023-09-08T15:29:16;41.30;54.30
23597;DHT22;40226;50.874;4.394;2023-09-08T15:31:43;42.10;53.00
23597;DHT22;40226;50.874;4.394;2023-09-08T15:34:08;42.70;52.00
23597;DHT22;40226;50.874;4.394;2023-09-08T15:36:36;42.90;51.10
23597;DHT22;40226;50.874;4.394;2023-09-08T15:39:01;42.20;51.40